sensor_id;sensor_type;location;lat;lon;timestamp;pressure;altitude;pressure_sealevel;temperature;humidity
21361;BME280;10839;43.206;23.550;2023-07-02T00:01:51;96356.13;;;20.01;100.00
21361;BME280;10839;43.206;23.550;2023-07-02T00:04:17;96347.41;;;19.99;100.00
21361;BME280;10839;43.206;23.550;2023-07-02T00:06:46;96352.31;;;20.07;99.58
21361;BME280;10839;43.206;23.550;2023-07-02T00:09:13;96352.31;;;20.38;96.45
21361;BME280;10839;43.206;23.550;2023-07-02T00:11:41;96344.09;;;20.53;93.86
21361;BME280;10839;43.206;23.550;2023-07-02T00:14:08;96354.97;;;20.73;87.33
21361;BME280;10839;43.206;23.550;2023-07-02T00:16:37;96352.22;;;20.83;89.01
21361;BME280;10839;43.206;23.550;2023-07-02T00:19:03;96351.13;;;20.74;95.18
21361;BME280;10839;43.206;23.550;2023-07-02T00:21:29;96358.06;;;20.26;100.00
21361;BME280;10839;43.206;23.550;2023-07-02T00:23:55;96352.28;;;19.57;100.00
21361;BME280;10839;43.206;23.550;2023-07-02T00:26:24;96354.44;;;19.35;100.00
21361;BME280;10839;43.206;23.550;2023-07-02T00:28:51;96344.63;;;19.39;100.00
21361;BME280;10839;43.206;23.550;2023-07-02T00:31:17;96351.63;;;19.20;100.00
21361;BME280;10839;43.206;23.550;2023-07-02T00:33:43;96348.38;;;19.28;100.00
21361;BME280;10839;43.206;23.550;2023-07-02T00:36:08;96330.91;;;19.24;100.00
21361;BME280;10839;43.206;23.550;2023-07-02T00:38:48;96328.19;;;19.19;100.00
21361;BME280;10839;43.206;23.550;2023-07-02T00:41:15;96335.34;;;19.40;100.00
21361;BME280;10839;43.206;23.550;2023-07-02T00:43:41;96332.06;;;19.48;100.00
21361;BME280;10839;43.206;23.550;2023-07-02T00:46:16;96342.47;;;19.51;100.00
21361;BME280;10839;43.206;23.550;2023-07-02T00:48:53;96343.84;;;19.59;100.00
21361;BME280;10839;43.206;23.550;2023-07-02T00:51:24;96338.81;;;19.16;100.00
21361;BME280;10839;43.206;23.550;2023-07-02T00:53:53;96336.91;;;19.21;100.00
21361;BME280;10839;43.206;23.550;2023-07-02T00:56:21;96333.09;;;19.22;100.00
21361;BME280;10839;43.206;23.550;2023-07-02T00:58:49;96344.38;;;19.46;100.00
21361;BME280;10839;43.206;23.550;2023-07-02T01:01:19;96347.69;;;19.68;100.00
21361;BME280;10839;43.206;23.550;2023-07-02T01:03:52;96350.69;;;19.66;100.00
21361;BME280;10839;43.206;23.550;2023-07-02T01:06:22;96355.59;;;19.69;100.00
21361;BME280;10839;43.206;23.550;2023-07-02T01:08:55;96356.13;;;19.76;100.00
21361;BME280;10839;43.206;23.550;2023-07-02T01:11:25;96347.94;;;19.61;100.00
21361;BME280;10839;43.206;23.550;2023-07-02T01:13:53;96345.72;;;19.43;100.00
21361;BME280;10839;43.206;23.550;2023-07-02T01:16:21;96353.91;;;19.58;100.00
21361;BME280;10839;43.206;23.550;2023-07-02T01:18:49;96349.84;;;19.56;100.00
21361;BME280;10839;43.206;23.550;2023-07-02T01:21:17;96361.84;;;19.80;100.00
21361;BME280;10839;43.206;23.550;2023-07-02T01:23:44;96356.97;;;19.97;100.00
21361;BME280;10839;43.206;23.550;2023-07-02T01:26:10;96358.84;;;20.11;100.00
21361;BME280;10839;43.206;23.550;2023-07-02T01:28:36;96364.88;;;20.44;100.00
21361;BME280;10839;43.206;23.550;2023-07-02T01:31:05;96362.97;;;20.44;100.00
21361;BME280;10839;43.206;23.550;2023-07-02T01:33:31;96362.13;;;20.54;100.00
21361;BME280;10839;43.206;23.550;2023-07-02T01:35:57;96367.00;;;20.67;100.00
21361;BME280;10839;43.206;23.550;2023-07-02T01:38:23;96361.53;;;20.67;100.00
21361;BME280;10839;43.206;23.550;2023-07-02T01:40:49;96363.75;;;20.45;100.00
21361;BME280;10839;43.206;23.550;2023-07-02T01:43:15;96367.59;;;20.49;100.00
21361;BME280;10839;43.206;23.550;2023-07-02T01:45:41;96360.50;;;20.43;100.00
21361;BME280;10839;43.206;23.550;2023-07-02T01:48:07;96365.84;;;20.88;99.48
21361;BME280;10839;43.206;23.550;2023-07-02T01:50:33;96358.41;;;21.08;98.40
21361;BME280;10839;43.206;23.550;2023-07-02T01:52:59;96348.81;;;21.16;97.49
21361;BME280;10839;43.206;23.550;2023-07-02T01:55:25;96352.06;;;21.18;96.64
21361;BME280;10839;43.206;23.550;2023-07-02T01:57:51;96356.44;;;21.24;96.59
21361;BME280;10839;43.206;23.550;2023-07-02T02:00:17;96342.22;;;21.22;95.74
21361;BME280;10839;43.206;23.550;2023-07-02T02:02:43;96337.91;;;21.06;96.52
21361;BME280;10839;43.206;23.550;2023-07-02T02:05:09;96322.69;;;20.75;98.95
21361;BME280;10839;43.206;23.550;2023-07-02T02:07:38;96322.13;;;20.83;98.79
21361;BME280;10839;43.206;23.550;2023-07-02T02:10:04;96327.06;;;20.76;100.00
21361;BME280;10839;43.206;23.550;2023-07-02T02:12:30;96327.72;;;20.43;100.00
21361;BME280;10839;43.206;23.550;2023-07-02T02:14:56;96332.94;;;20.24;100.00
21361;BME280;10839;43.206;23.550;2023-07-02T02:17:22;96336.72;;;20.38;100.00
21361;BME280;10839;43.206;23.550;2023-07-02T02:19:49;96337.00;;;20.31;100.00
21361;BME280;10839;43.206;23.550;2023-07-02T02:22:16;96329.09;;;20.25;100.00
21361;BME280;10839;43.206;23.550;2023-07-02T02:24:42;96339.13;;;20.60;100.00
21361;BME280;10839;43.206;23.550;2023-07-02T02:27:08;96335.50;;;20.99;100.00
21361;BME280;10839;43.206;23.550;2023-07-02T02:29:34;96332.44;;;21.11;99.19
21361;BME280;10839;43.206;23.550;2023-07-02T02:32:00;96334.63;;;21.09;96.04
21361;BME280;10839;43.206;23.550;2023-07-02T02:34:26;96329.38;;;21.17;93.55
21361;BME280;10839;43.206;23.550;2023-07-02T02:36:52;96339.66;;;21.40;92.10
21361;BME280;10839;43.206;23.550;2023-07-02T02:39:21;96335.41;;;21.58;91.58
21361;BME280;10839;43.206;23.550;2023-07-02T02:41:48;96335.94;;;21.60;89.98
21361;BME280;10839;43.206;23.550;2023-07-02T02:44:18;96345.19;;;21.74;89.52
21361;BME280;10839;43.206;23.550;2023-07-02T02:46:44;96346.81;;;21.75;91.53
21361;BME280;10839;43.206;23.550;2023-07-02T02:49:10;96349.47;;;21.90;92.82
21361;BME280;10839;43.206;23.550;2023-07-02T02:51:36;96343.56;;;21.68;96.77
21361;BME280;10839;43.206;23.550;2023-07-02T02:54:01;96339.25;;;21.57;99.13
21361;BME280;10839;43.206;23.550;2023-07-02T02:56:27;96345.06;;;21.50;100.00
21361;BME280;10839;43.206;23.550;2023-07-02T02:58:53;96353.56;;;21.49;100.00
21361;BME280;10839;43.206;23.550;2023-07-02T03:01:19;96358.88;;;21.79;98.65
21361;BME280;10839;43.206;23.550;2023-07-02T03:03:45;96356.97;;;21.70;99.59
21361;BME280;10839;43.206;23.550;2023-07-02T03:06:13;96349.66;;;21.60;100.00
21361;BME280;10839;43.206;23.550;2023-07-02T03:08:40;96353.56;;;21.49;100.00
21361;BME280;10839;43.206;23.550;2023-07-02T03:11:06;96356.97;;;21.26;100.00
21361;BME280;10839;43.206;23.550;2023-07-02T03:13:32;96357.34;;;21.09;100.00
21361;BME280;10839;43.206;23.550;2023-07-02T03:15:59;96363.00;;;21.18;99.67
21361;BME280;10839;43.206;23.550;2023-07-02T03:18:24;96358.56;;;21.32;99.82
21361;BME280;10839;43.206;23.550;2023-07-02T03:20:50;96351.84;;;21.58;98.94
21361;BME280;10839;43.206;23.550;2023-07-02T03:23:16;96352.34;;;21.65;98.12
21361;BME280;10839;43.206;23.550;2023-07-02T03:25:42;96360.53;;;21.70;97.15
21361;BME280;10839;43.206;23.550;2023-07-02T03:28:08;96355.44;;;21.53;100.00
21361;BME280;10839;43.206;23.550;2023-07-02T03:30:34;96353.00;;;21.52;99.75
21361;BME280;10839;43.206;23.550;2023-07-02T03:32:59;96361.84;;;21.34;99.86
21361;BME280;10839;43.206;23.550;2023-07-02T03:35:25;96368.19;;;21.24;100.00
21361;BME280;10839;43.206;23.550;2023-07-02T03:37:51;96357.88;;;21.55;98.90
21361;BME280;10839;43.206;23.550;2023-07-02T03:40:17;96364.88;;;21.32;100.00
21361;BME280;10839;43.206;23.550;2023-07-02T03:42:43;96368.84;;;21.55;100.00
21361;BME280;10839;43.206;23.550;2023-07-02T03:45:09;96375.81;;;21.76;97.05
21361;BME280;10839;43.206;23.550;2023-07-02T03:47:35;96374.19;;;21.75;96.78
21361;BME280;10839;43.206;23.550;2023-07-02T03:50:01;96379.56;;;21.95;96.87
21361;BME280;10839;43.206;23.550;2023-07-02T03:52:27;96374.50;;;22.12;95.63
21361;BME280;10839;43.206;23.550;2023-07-02T03:54:53;96379.31;;;22.25;93.73
21361;BME280;10839;43.206;23.550;2023-07-02T03:57:19;96379.03;;;22.60;90.64
21361;BME280;10839;43.206;23.550;2023-07-02T03:59:45;96376.63;;;24.23;80.45
21361;BME280;10839;43.206;23.550;2023-07-02T04:02:11;96382.28;;;26.65;70.64
21361;BME280;10839;43.206;23.550;2023-07-02T04:04:37;96385.88;;;27.75;64.68
21361;BME280;10839;43.206;23.550;2023-07-02T04:07:03;96385.13;;;27.91;61.84
21361;BME280;10839;43.206;23.550;2023-07-02T04:09:28;96379.25;;;28.78;58.29
21361;BME280;10839;43.206;23.550;2023-07-02T04:11:55;96387.75;;;27.48;60.55
21361;BME280;10839;43.206;23.550;2023-07-02T04:14:20;96386.28;;;27.03;61.86
21361;BME280;10839;43.206;23.550;2023-07-02T04:16:46;96381.00;;;26.18;66.13
21361;BME280;10839;43.206;23.550;2023-07-02T04:19:12;96391.09;;;25.74;68.75
21361;BME280;10839;43.206;23.550;2023-07-02T04:21:38;96387.94;;;25.12;70.81
21361;BME280;10839;43.206;23.550;2023-07-02T04:24:04;96391.28;;;24.82;71.77
21361;BME280;10839;43.206;23.550;2023-07-02T04:26:30;96386.91;;;24.49;72.34
21361;BME280;10839;43.206;23.550;2023-07-02T04:28:56;96389.53;;;24.41;71.17
21361;BME280;10839;43.206;23.550;2023-07-02T04:31:21;96397.44;;;24.29;71.92
21361;BME280;10839;43.206;23.550;2023-07-02T04:33:47;96402.94;;;24.29;72.84
21361;BME280;10839;43.206;23.550;2023-07-02T04:36:13;96403.75;;;24.29;71.65
21361;BME280;10839;43.206;23.550;2023-07-02T04:38:39;96407.34;;;24.11;73.62
21361;BME280;10839;43.206;23.550;2023-07-02T04:41:05;96405.00;;;24.37;73.52
21361;BME280;10839;43.206;23.550;2023-07-02T04:43:32;96402.81;;;24.52;71.07
21361;BME280;10839;43.206;23.550;2023-07-02T04:45:59;96400.75;;;24.44;70.01
21361;BME280;10839;43.206;23.550;2023-07-02T04:48:25;96398.84;;;24.77;68.14
21361;BME280;10839;43.206;23.550;2023-07-02T04:50:51;96403.03;;;24.05;72.78
21361;BME280;10839;43.206;23.550;2023-07-02T04:53:17;96402.97;;;24.10;73.29
21361;BME280;10839;43.206;23.550;2023-07-02T04:55:43;96404.78;;;24.33;71.50
21361;BME280;10839;43.206;23.550;2023-07-02T04:58:09;96402.69;;;23.51;77.48
21361;BME280;10839;43.206;23.550;2023-07-02T05:00:35;96415.91;;;23.02;83.18
21361;BME280;10839;43.206;23.550;2023-07-02T05:03:00;96412.16;;;23.16;83.26
21361;BME280;10839;43.206;23.550;2023-07-02T05:05:26;96418.94;;;23.00;83.50
21361;BME280;10839;43.206;23.550;2023-07-02T05:07:54;96419.00;;;22.66;83.95
21361;BME280;10839;43.206;23.550;2023-07-02T05:10:20;96415.41;;;22.37;87.00
21361;BME280;10839;43.206;23.550;2023-07-02T05:12:46;96412.72;;;22.32;88.15
21361;BME280;10839;43.206;23.550;2023-07-02T05:15:12;96409.50;;;22.83;85.31
21361;BME280;10839;43.206;23.550;2023-07-02T05:17:38;96405.59;;;23.59;80.25
21361;BME280;10839;43.206;23.550;2023-07-02T05:20:05;96412.03;;;23.03;81.44
21361;BME280;10839;43.206;23.550;2023-07-02T05:22:31;96405.34;;;22.61;87.79
21361;BME280;10839;43.206;23.550;2023-07-02T05:24:57;96407.81;;;22.87;87.92
21361;BME280;10839;43.206;23.550;2023-07-02T05:27:23;96407.13;;;23.23;86.58
21361;BME280;10839;43.206;23.550;2023-07-02T05:29:48;96407.00;;;23.10;86.08
21361;BME280;10839;43.206;23.550;2023-07-02T05:32:14;96408.91;;;23.38;85.44
21361;BME280;10839;43.206;23.550;2023-07-02T05:34:40;96415.44;;;23.42;85.38
21361;BME280;10839;43.206;23.550;2023-07-02T05:37:06;96419.81;;;23.85;84.43
21361;BME280;10839;43.206;23.550;2023-07-02T05:39:33;96416.31;;;23.79;84.09
21361;BME280;10839;43.206;23.550;2023-07-02T05:41:59;96423.78;;;23.74;82.13
21361;BME280;10839;43.206;23.550;2023-07-02T05:44:25;96428.19;;;23.33;83.99
21361;BME280;10839;43.206;23.550;2023-07-02T05:46:51;96423.72;;;23.79;83.36
21361;BME280;10839;43.206;23.550;2023-07-02T05:49:16;96415.78;;;23.59;83.53
21361;BME280;10839;43.206;23.550;2023-07-02T05:51:42;96418.47;;;23.64;83.13
21361;BME280;10839;43.206;23.550;2023-07-02T05:54:08;96421.88;;;23.93;81.48
21361;BME280;10839;43.206;23.550;2023-07-02T05:56:34;96419.31;;;24.52;77.28
21361;BME280;10839;43.206;23.550;2023-07-02T05:58:59;96420.47;;;24.83;76.99
21361;BME280;10839;43.206;23.550;2023-07-02T06:01:25;96423.47;;;24.68;74.36
21361;BME280;10839;43.206;23.550;2023-07-02T06:03:52;96429.22;;;24.85;70.43
21361;BME280;10839;43.206;23.550;2023-07-02T06:06:17;96431.31;;;25.75;65.55
21361;BME280;10839;43.206;23.550;2023-07-02T06:08:43;96426.72;;;26.77;61.61
21361;BME280;10839;43.206;23.550;2023-07-02T06:11:10;96427.53;;;27.87;55.80
21361;BME280;10839;43.206;23.550;2023-07-02T06:13:36;96434.09;;;28.93;50.60
21361;BME280;10839;43.206;23.550;2023-07-02T06:16:02;96428.00;;;29.71;49.54
21361;BME280;10839;43.206;23.550;2023-07-02T06:18:28;96423.56;;;29.99;48.40
21361;BME280;10839;43.206;23.550;2023-07-02T06:20:54;96428.75;;;30.92;47.14
21361;BME280;10839;43.206;23.550;2023-07-02T06:23:20;96433.19;;;31.50;44.77
21361;BME280;10839;43.206;23.550;2023-07-02T06:25:46;96424.44;;;30.62;45.50
21361;BME280;10839;43.206;23.550;2023-07-02T06:28:12;96433.19;;;31.05;48.13
21361;BME280;10839;43.206;23.550;2023-07-02T06:30:37;96438.28;;;31.36;48.41
21361;BME280;10839;43.206;23.550;2023-07-02T06:33:03;96436.16;;;31.20;49.39
21361;BME280;10839;43.206;23.550;2023-07-02T06:35:29;96427.25;;;30.94;51.32
21361;BME280;10839;43.206;23.550;2023-07-02T06:37:56;96433.28;;;30.23;56.01
21361;BME280;10839;43.206;23.550;2023-07-02T06:40:22;96434.03;;;30.02;58.20
21361;BME280;10839;43.206;23.550;2023-07-02T06:42:48;96425.84;;;29.77;59.94
21361;BME280;10839;43.206;23.550;2023-07-02T06:45:14;96430.28;;;29.32;62.30
21361;BME280;10839;43.206;23.550;2023-07-02T06:47:40;96428.91;;;28.49;66.97
21361;BME280;10839;43.206;23.550;2023-07-02T06:50:06;96428.25;;;28.01;69.40
21361;BME280;10839;43.206;23.550;2023-07-02T06:52:32;96430.44;;;27.82;70.82
21361;BME280;10839;43.206;23.550;2023-07-02T06:54:57;96432.50;;;28.24;69.21
21361;BME280;10839;43.206;23.550;2023-07-02T06:57:23;96435.50;;;27.80;71.08
21361;BME280;10839;43.206;23.550;2023-07-02T06:59:49;96429.88;;;28.02;69.79
21361;BME280;10839;43.206;23.550;2023-07-02T07:02:16;96433.38;;;27.77;69.67
21361;BME280;10839;43.206;23.550;2023-07-02T07:04:41;96425.66;;;28.13;69.17
21361;BME280;10839;43.206;23.550;2023-07-02T07:07:07;96435.91;;;28.21;66.50
21361;BME280;10839;43.206;23.550;2023-07-02T07:09:33;96438.19;;;29.50;63.20
21361;BME280;10839;43.206;23.550;2023-07-02T07:11:59;96435.06;;;30.60;59.19
21361;BME280;10839;43.206;23.550;2023-07-02T07:14:25;96444.00;;;32.23;53.69
21361;BME280;10839;43.206;23.550;2023-07-02T07:16:51;96429.38;;;33.06;52.25
21361;BME280;10839;43.206;23.550;2023-07-02T07:19:17;96442.09;;;33.93;48.43
21361;BME280;10839;43.206;23.550;2023-07-02T07:21:43;96450.53;;;34.12;46.76
21361;BME280;10839;43.206;23.550;2023-07-02T07:24:09;96450.38;;;34.05;45.29
21361;BME280;10839;43.206;23.550;2023-07-02T07:26:35;96456.00;;;33.03;45.20
21361;BME280;10839;43.206;23.550;2023-07-02T07:29:01;96448.66;;;33.70;43.57
21361;BME280;10839;43.206;23.550;2023-07-02T07:31:27;96455.41;;;33.53;43.46
21361;BME280;10839;43.206;23.550;2023-07-02T07:33:53;96445.22;;;33.02;43.64
21361;BME280;10839;43.206;23.550;2023-07-02T07:36:19;96448.56;;;33.66;43.21
21361;BME280;10839;43.206;23.550;2023-07-02T07:38:45;96445.09;;;34.69;42.01
21361;BME280;10839;43.206;23.550;2023-07-02T07:41:11;96443.47;;;35.26;40.52
21361;BME280;10839;43.206;23.550;2023-07-02T07:43:37;96456.09;;;35.58;40.22
21361;BME280;10839;43.206;23.550;2023-07-02T07:46:03;96449.50;;;35.47;39.93
21361;BME280;10839;43.206;23.550;2023-07-02T07:48:28;96453.75;;;36.05;39.07
21361;BME280;10839;43.206;23.550;2023-07-02T07:50:54;96450.09;;;35.82;39.18
21361;BME280;10839;43.206;23.550;2023-07-02T07:53:20;96451.34;;;36.07;39.48
21361;BME280;10839;43.206;23.550;2023-07-02T07:55:46;96452.22;;;36.11;38.44
21361;BME280;10839;43.206;23.550;2023-07-02T07:58:12;96440.75;;;35.93;38.89
21361;BME280;10839;43.206;23.550;2023-07-02T08:00:38;96454.72;;;36.16;38.43
21361;BME280;10839;43.206;23.550;2023-07-02T08:03:03;96449.00;;;36.09;37.61
21361;BME280;10839;43.206;23.550;2023-07-02T08:05:32;96447.59;;;35.73;39.32
21361;BME280;10839;43.206;23.550;2023-07-02T08:07:58;96458.16;;;36.06;39.04
21361;BME280;10839;43.206;23.550;2023-07-02T08:10:24;96456.81;;;35.96;40.05
21361;BME280;10839;43.206;23.550;2023-07-02T08:12:51;96458.47;;;36.01;38.80
21361;BME280;10839;43.206;23.550;2023-07-02T08:15:18;96459.25;;;36.50;38.14
21361;BME280;10839;43.206;23.550;2023-07-02T08:17:44;96458.47;;;36.27;39.07
21361;BME280;10839;43.206;23.550;2023-07-02T08:20:11;96461.53;;;36.19;39.01
21361;BME280;10839;43.206;23.550;2023-07-02T08:22:37;96457.66;;;36.49;38.07
21361;BME280;10839;43.206;23.550;2023-07-02T08:25:05;96461.72;;;36.03;38.97
21361;BME280;10839;43.206;23.550;2023-07-02T08:27:31;96467.25;;;36.48;39.26
21361;BME280;10839;43.206;23.550;2023-07-02T08:29:57;96471.09;;;36.92;37.53
21361;BME280;10839;43.206;23.550;2023-07-02T08:32:23;96462.75;;;36.70;37.75
21361;BME280;10839;43.206;23.550;2023-07-02T08:34:48;96458.81;;;36.74;38.02
21361;BME280;10839;43.206;23.550;2023-07-02T08:37:17;96474.47;;;36.49;39.00
21361;BME280;10839;43.206;23.550;2023-07-02T08:39:43;96471.75;;;36.82;38.29
21361;BME280;10839;43.206;23.550;2023-07-02T08:42:09;96459.03;;;36.62;38.10
21361;BME280;10839;43.206;23.550;2023-07-02T08:44:35;96475.66;;;36.48;38.37
21361;BME280;10839;43.206;23.550;2023-07-02T08:47:01;96461.28;;;36.27;39.02
21361;BME280;10839;43.206;23.550;2023-07-02T08:49:27;96459.88;;;36.14;37.98
21361;BME280;10839;43.206;23.550;2023-07-02T08:51:53;96457.31;;;36.80;37.54
21361;BME280;10839;43.206;23.550;2023-07-02T08:54:19;96453.59;;;37.02;36.65
21361;BME280;10839;43.206;23.550;2023-07-02T08:56:46;96445.59;;;37.04;37.90
21361;BME280;10839;43.206;23.550;2023-07-02T08:59:12;96456.41;;;37.36;37.30
21361;BME280;10839;43.206;23.550;2023-07-02T09:01:52;96470.00;;;37.00;35.90
21361;BME280;10839;43.206;23.550;2023-07-02T09:04:23;96462.38;;;36.45;35.33
21361;BME280;10839;43.206;23.550;2023-07-02T09:07:06;96465.31;;;36.03;35.32
21361;BME280;10839;43.206;23.550;2023-07-02T09:09:33;96465.06;;;35.67;35.31
21361;BME280;10839;43.206;23.550;2023-07-02T09:11:59;96459.81;;;35.43;35.71
21361;BME280;10839;43.206;23.550;2023-07-02T09:14:26;96461.44;;;34.87;36.81
21361;BME280;10839;43.206;23.550;2023-07-02T09:17:04;96462.56;;;36.07;35.24
21361;BME280;10839;43.206;23.550;2023-07-02T09:19:31;96466.06;;;35.78;35.38
21361;BME280;10839;43.206;23.550;2023-07-02T09:21:58;96460.09;;;35.57;34.89
21361;BME280;10839;43.206;23.550;2023-07-02T09:24:28;96467.34;;;35.84;34.43
21361;BME280;10839;43.206;23.550;2023-07-02T09:26:57;96466.88;;;35.78;35.18
21361;BME280;10839;43.206;23.550;2023-07-02T09:29:25;96466.47;;;34.97;36.72
21361;BME280;10839;43.206;23.550;2023-07-02T09:31:59;96466.16;;;34.32;36.99
21361;BME280;10839;43.206;23.550;2023-07-02T09:34:32;96463.53;;;34.55;38.12
21361;BME280;10839;43.206;23.550;2023-07-02T09:37:00;96461.38;;;35.40;37.93
21361;BME280;10839;43.206;23.550;2023-07-02T09:39:31;96457.41;;;35.64;37.22
21361;BME280;10839;43.206;23.550;2023-07-02T09:42:00;96461.94;;;35.72;37.21
21361;BME280;10839;43.206;23.550;2023-07-02T09:44:31;96460.19;;;36.09;36.00
21361;BME280;10839;43.206;23.550;2023-07-02T09:47:10;96451.25;;;36.00;37.13
21361;BME280;10839;43.206;23.550;2023-07-02T09:49:39;96456.75;;;35.93;37.51
21361;BME280;10839;43.206;23.550;2023-07-02T09:52:08;96463.41;;;36.34;37.01
21361;BME280;10839;43.206;23.550;2023-07-02T09:54:34;96461.94;;;36.17;37.61
21361;BME280;10839;43.206;23.550;2023-07-02T09:57:01;96454.28;;;34.35;38.97
21361;BME280;10839;43.206;23.550;2023-07-02T09:59:28;96458.38;;;33.17;40.67
21361;BME280;10839;43.206;23.550;2023-07-02T10:01:54;96454.91;;;33.35;40.77
21361;BME280;10839;43.206;23.550;2023-07-02T10:04:21;96456.13;;;32.67;42.71
21361;BME280;10839;43.206;23.550;2023-07-02T10:06:54;96454.25;;;32.07;42.35
21361;BME280;10839;43.206;23.550;2023-07-02T10:09:33;96456.31;;;31.62;43.95
21361;BME280;10839;43.206;23.550;2023-07-02T10:12:00;96458.97;;;31.14;45.41
21361;BME280;10839;43.206;23.550;2023-07-02T10:14:26;96465.66;;;31.46;44.77
21361;BME280;10839;43.206;23.550;2023-07-02T10:16:53;96459.72;;;31.35;45.93
21361;BME280;10839;43.206;23.550;2023-07-02T10:19:20;96462.44;;;30.29;47.64
21361;BME280;10839;43.206;23.550;2023-07-02T10:21:46;96460.63;;;30.33;48.70
21361;BME280;10839;43.206;23.550;2023-07-02T10:24:16;96455.34;;;30.40;47.75
21361;BME280;10839;43.206;23.550;2023-07-02T10:26:55;96458.25;;;29.56;50.84
21361;BME280;10839;43.206;23.550;2023-07-02T10:29:23;96460.69;;;28.85;54.59
21361;BME280;10839;43.206;23.550;2023-07-02T10:31:55;96461.97;;;29.14;55.33
21361;BME280;10839;43.206;23.550;2023-07-02T10:34:33;96454.00;;;28.27;56.55
21361;BME280;10839;43.206;23.550;2023-07-02T10:37:01;96456.78;;;27.71;59.12
21361;BME280;10839;43.206;23.550;2023-07-02T10:39:31;96452.63;;;27.20;61.19
21361;BME280;10839;43.206;23.550;2023-07-02T10:42:05;96457.00;;;27.43;61.98
21361;BME280;10839;43.206;23.550;2023-07-02T10:44:31;96460.91;;;27.42;61.74
21361;BME280;10839;43.206;23.550;2023-07-02T10:46:57;96467.22;;;27.12;61.53
21361;BME280;10839;43.206;23.550;2023-07-02T10:49:30;96459.84;;;26.77;63.29
21361;BME280;10839;43.206;23.550;2023-07-02T10:51:58;96451.47;;;27.43;60.48
21361;BME280;10839;43.206;23.550;2023-07-02T10:54:24;96457.06;;;27.60;59.29
21361;BME280;10839;43.206;23.550;2023-07-02T10:56:50;96456.13;;;27.74;58.42
21361;BME280;10839;43.206;23.550;2023-07-02T10:59:25;96453.91;;;27.84;58.38
21361;BME280;10839;43.206;23.550;2023-07-02T11:01:51;96455.00;;;28.48;55.70
21361;BME280;10839;43.206;23.550;2023-07-02T11:04:17;96464.41;;;28.47;56.73
21361;BME280;10839;43.206;23.550;2023-07-02T11:06:43;96462.03;;;28.62;59.19
21361;BME280;10839;43.206;23.550;2023-07-02T11:09:16;96478.41;;;28.42;65.34
21361;BME280;10839;43.206;23.550;2023-07-02T11:11:56;96485.84;;;27.99;72.46
21361;BME280;10839;43.206;23.550;2023-07-02T11:16:57;96492.78;;;27.18;81.75
21361;BME280;10839;43.206;23.550;2023-07-02T11:19:23;96503.78;;;26.87;86.10
21361;BME280;10839;43.206;23.550;2023-07-02T11:21:52;96501.78;;;26.79;86.36
21361;BME280;10839;43.206;23.550;2023-07-02T11:24:36;96507.25;;;26.57;85.48
21361;BME280;10839;43.206;23.550;2023-07-02T11:27:04;96516.78;;;26.51;86.26
21361;BME280;10839;43.206;23.550;2023-07-02T11:29:34;96519.09;;;26.22;86.70
21361;BME280;10839;43.206;23.550;2023-07-02T11:32:11;96502.31;;;24.78;96.86
21361;BME280;10839;43.206;23.550;2023-07-02T11:34:40;96496.63;;;23.95;100.00
21361;BME280;10839;43.206;23.550;2023-07-02T11:37:06;96476.91;;;24.30;100.00
21361;BME280;10839;43.206;23.550;2023-07-02T11:39:32;96487.31;;;24.33;100.00
21361;BME280;10839;43.206;23.550;2023-07-02T11:41:58;96497.94;;;24.21;100.00
21361;BME280;10839;43.206;23.550;2023-07-02T11:44:24;96497.84;;;24.63;99.18
21361;BME280;10839;43.206;23.550;2023-07-02T11:46:50;96491.44;;;24.49;99.28
21361;BME280;10839;43.206;23.550;2023-07-02T11:49:16;96499.59;;;24.22;94.96
21361;BME280;10839;43.206;23.550;2023-07-02T11:51:43;96503.72;;;24.20;96.49
21361;BME280;10839;43.206;23.550;2023-07-02T11:54:15;96506.03;;;24.31;97.75
21361;BME280;10839;43.206;23.550;2023-07-02T11:56:42;96508.84;;;24.26;100.00
21361;BME280;10839;43.206;23.550;2023-07-02T11:59:08;96501.28;;;24.18;100.00
21361;BME280;10839;43.206;23.550;2023-07-02T12:01:34;96495.91;;;24.08;100.00
21361;BME280;10839;43.206;23.550;2023-07-02T12:04:00;96492.34;;;24.63;100.00
21361;BME280;10839;43.206;23.550;2023-07-02T12:06:26;96486.63;;;24.78;100.00
21361;BME280;10839;43.206;23.550;2023-07-02T12:08:52;96485.03;;;24.72;100.00
21361;BME280;10839;43.206;23.550;2023-07-02T12:11:18;96482.22;;;24.77;100.00
21361;BME280;10839;43.206;23.550;2023-07-02T12:13:43;96481.69;;;25.07;93.79
21361;BME280;10839;43.206;23.550;2023-07-02T12:16:09;96468.94;;;25.11;90.54
21361;BME280;10839;43.206;23.550;2023-07-02T12:18:35;96460.78;;;25.06;89.62
21361;BME280;10839;43.206;23.550;2023-07-02T12:21:01;96465.81;;;25.32;86.32
21361;BME280;10839;43.206;23.550;2023-07-02T12:23:27;96458.38;;;25.46;87.25
21361;BME280;10839;43.206;23.550;2023-07-02T12:25:53;96462.06;;;25.82;86.51
21361;BME280;10839;43.206;23.550;2023-07-02T12:28:18;96460.50;;;25.76;82.08
21361;BME280;10839;43.206;23.550;2023-07-02T12:30:44;96457.22;;;26.50;78.75
21361;BME280;10839;43.206;23.550;2023-07-02T12:33:10;96448.06;;;26.27;78.48
21361;BME280;10839;43.206;23.550;2023-07-02T12:35:36;96444.63;;;27.10;74.65
21361;BME280;10839;43.206;23.550;2023-07-02T12:38:02;96450.91;;;27.02;74.15
21361;BME280;10839;43.206;23.550;2023-07-02T12:40:34;96449.81;;;26.81;75.76
21361;BME280;10839;43.206;23.550;2023-07-02T12:42:59;96451.28;;;27.09;74.74
21361;BME280;10839;43.206;23.550;2023-07-02T12:45:26;96446.47;;;27.15;75.30
21361;BME280;10839;43.206;23.550;2023-07-02T12:47:51;96447.94;;;27.99;73.98
21361;BME280;10839;43.206;23.550;2023-07-02T12:50:17;96432.84;;;28.31;68.57